sensor_id;sensor_type;location;lat;lon;timestamp;temperature;humidity
8910;DHT22;4490;49.072;8.804;2022-07-18T00:01:47;17.80;61.00
8910;DHT22;4490;49.072;8.804;2022-07-18T00:04:12;17.80;60.70
8910;DHT22;4490;49.072;8.804;2022-07-18T00:06:38;17.70;60.80
8910;DHT22;4490;49.072;8.804;2022-07-18T00:09:04;17.70;61.00
8910;DHT22;4490;49.072;8.804;2022-07-18T00:11:30;17.60;61.50
8910;DHT22;4490;49.072;8.804;2022-07-18T00:13:55;17.60;61.70
8910;DHT22;4490;49.072;8.804;2022-07-18T00:16:21;17.50;61.70
8910;DHT22;4490;49.072;8.804;2022-07-18T00:18:48;17.40;61.50
8910;DHT22;4490;49.072;8.804;2022-07-18T00:21:15;17.40;61.60
8910;DHT22;4490;49.072;8.804;2022-07-18T00:23:40;17.30;61.50
8910;DHT22;4490;49.072;8.804;2022-07-18T00:26:06;17.30;61.70
8910;DHT22;4490;49.072;8.804;2022-07-18T00:28:31;17.30;61.80
8910;DHT22;4490;49.072;8.804;2022-07-18T00:30:57;17.30;62.00
8910;DHT22;4490;49.072;8.804;2022-07-18T00:33:23;17.30;62.10
8910;DHT22;4490;49.072;8.804;2022-07-18T00:35:48;17.20;62.20
8910;DHT22;4490;49.072;8.804;2022-07-18T00:38:14;17.20;62.60
8910;DHT22;4490;49.072;8.804;2022-07-18T00:40:41;17.10;62.80
8910;DHT22;4490;49.072;8.804;2022-07-18T00:43:06;17.10;62.80
8910;DHT22;4490;49.072;8.804;2022-07-18T00:45:32;17.00;62.70
8910;DHT22;4490;49.072;8.804;2022-07-18T00:47:57;17.00;62.80
8910;DHT22;4490;49.072;8.804;2022-07-18T00:50:24;17.00;62.80
8910;DHT22;4490;49.072;8.804;2022-07-18T00:52:50;16.90;62.80
8910;DHT22;4490;49.072;8.804;2022-07-18T00:55:16;16.90;62.80
8910;DHT22;4490;49.072;8.804;2022-07-18T00:57:42;16.90;62.80
8910;DHT22;4490;49.072;8.804;2022-07-18T01:00:13;16.80;62.70
8910;DHT22;4490;49.072;8.804;2022-07-18T01:02:58;16.80;63.10
8910;DHT22;4490;49.072;8.804;2022-07-18T01:05:23;16.70;63.10
8910;DHT22;4490;49.072;8.804;2022-07-18T01:07:49;16.70;63.30
8910;DHT22;4490;49.072;8.804;2022-07-18T01:10:17;16.60;63.30
8910;DHT22;4490;49.072;8.804;2022-07-18T01:12:44;16.60;63.40
8910;DHT22;4490;49.072;8.804;2022-07-18T01:15:10;16.60;63.40
8910;DHT22;4490;49.072;8.804;2022-07-18T01:17:36;16.60;63.40
8910;DHT22;4490;49.072;8.804;2022-07-18T01:20:03;16.50;63.40
8910;DHT22;4490;49.072;8.804;2022-07-18T01:22:29;16.50;63.50
8910;DHT22;4490;49.072;8.804;2022-07-18T01:24:54;16.50;63.60
8910;DHT22;4490;49.072;8.804;2022-07-18T01:27:21;16.40;63.40
8910;DHT22;4490;49.072;8.804;2022-07-18T01:29:48;16.40;63.60
8910;DHT22;4490;49.072;8.804;2022-07-18T01:32:15;16.30;63.80
8910;DHT22;4490;49.072;8.804;2022-07-18T01:34:42;16.30;63.80
8910;DHT22;4490;49.072;8.804;2022-07-18T01:37:09;16.30;64.10
8910;DHT22;4490;49.072;8.804;2022-07-18T01:39:35;16.20;64.30
8910;DHT22;4490;49.072;8.804;2022-07-18T01:42:04;16.20;64.60
8910;DHT22;4490;49.072;8.804;2022-07-18T01:44:30;16.10;64.80
8910;DHT22;4490;49.072;8.804;2022-07-18T01:46:56;16.10;64.60
8910;DHT22;4490;49.072;8.804;2022-07-18T01:49:22;16.10;64.80
8910;DHT22;4490;49.072;8.804;2022-07-18T01:51:49;16.10;64.80
8910;DHT22;4490;49.072;8.804;2022-07-18T01:54:15;16.00;64.80
8910;DHT22;4490;49.072;8.804;2022-07-18T01:56:41;16.00;65.10
8910;DHT22;4490;49.072;8.804;2022-07-18T01:59:07;15.90;65.00
8910;DHT22;4490;49.072;8.804;2022-07-18T02:01:33;15.90;65.20
8910;DHT22;4490;49.072;8.804;2022-07-18T02:03:58;15.90;65.10
8910;DHT22;4490;49.072;8.804;2022-07-18T02:06:24;15.80;65.10
8910;DHT22;4490;49.072;8.804;2022-07-18T02:08:49;15.80;65.20
8910;DHT22;4490;49.072;8.804;2022-07-18T02:11:15;15.80;65.30
8910;DHT22;4490;49.072;8.804;2022-07-18T02:13:41;15.70;65.20
8910;DHT22;4490;49.072;8.804;2022-07-18T02:16:06;15.70;65.40
8910;DHT22;4490;49.072;8.804;2022-07-18T02:18:32;15.70;65.60
8910;DHT22;4490;49.072;8.804;2022-07-18T02:20:59;15.60;65.80
8910;DHT22;4490;49.072;8.804;2022-07-18T02:23:25;15.60;66.00
8910;DHT22;4490;49.072;8.804;2022-07-18T02:25:51;15.50;66.10
8910;DHT22;4490;49.072;8.804;2022-07-18T02:28:16;15.50;66.30
8910;DHT22;4490;49.072;8.804;2022-07-18T02:30:42;15.50;66.40
8910;DHT22;4490;49.072;8.804;2022-07-18T02:33:08;15.50;66.40
8910;DHT22;4490;49.072;8.804;2022-07-18T02:35:34;15.50;66.40
8910;DHT22;4490;49.072;8.804;2022-07-18T02:37:59;15.40;66.40
8910;DHT22;4490;49.072;8.804;2022-07-18T02:40:25;15.40;66.40
8910;DHT22;4490;49.072;8.804;2022-07-18T02:42:51;15.40;66.60
8910;DHT22;4490;49.072;8.804;2022-07-18T02:45:16;15.30;66.60
8910;DHT22;4490;49.072;8.804;2022-07-18T02:47:42;15.30;66.90
8910;DHT22;4490;49.072;8.804;2022-07-18T02:50:09;15.20;67.00
8910;DHT22;4490;49.072;8.804;2022-07-18T02:52:35;15.20;67.00
8910;DHT22;4490;49.072;8.804;2022-07-18T02:55:00;15.20;67.00
8910;DHT22;4490;49.072;8.804;2022-07-18T02:57:27;15.10;67.20
8910;DHT22;4490;49.072;8.804;2022-07-18T02:59:53;15.10;67.30
8910;DHT22;4490;49.072;8.804;2022-07-18T03:02:18;15.00;67.40
8910;DHT22;4490;49.072;8.804;2022-07-18T03:04:44;15.00;67.60
8910;DHT22;4490;49.072;8.804;2022-07-18T03:07:10;14.90;67.50
8910;DHT22;4490;49.072;8.804;2022-07-18T03:09:35;14.90;67.70
8910;DHT22;4490;49.072;8.804;2022-07-18T03:12:01;14.90;67.90
8910;DHT22;4490;49.072;8.804;2022-07-18T03:14:27;14.90;68.10
8910;DHT22;4490;49.072;8.804;2022-07-18T03:16:52;14.80;68.10
8910;DHT22;4490;49.072;8.804;2022-07-18T03:19:18;14.80;68.40
8910;DHT22;4490;49.072;8.804;2022-07-18T03:21:44;14.80;68.60
8910;DHT22;4490;49.072;8.804;2022-07-18T03:24:10;14.80;68.70
8910;DHT22;4490;49.072;8.804;2022-07-18T03:26:37;14.80;68.80
8910;DHT22;4490;49.072;8.804;2022-07-18T03:29:03;14.80;69.00
8910;DHT22;4490;49.072;8.804;2022-07-18T03:31:28;14.70;69.00
8910;DHT22;4490;49.072;8.804;2022-07-18T03:33:54;14.70;69.20
8910;DHT22;4490;49.072;8.804;2022-07-18T03:36:19;14.70;69.40
8910;DHT22;4490;49.072;8.804;2022-07-18T03:38:45;14.60;69.30
8910;DHT22;4490;49.072;8.804;2022-07-18T03:41:12;14.60;69.30
8910;DHT22;4490;49.072;8.804;2022-07-18T03:43:39;14.60;69.40
8910;DHT22;4490;49.072;8.804;2022-07-18T03:46:04;14.60;69.60
8910;DHT22;4490;49.072;8.804;2022-07-18T03:48:30;14.60;69.50
8910;DHT22;4490;49.072;8.804;2022-07-18T03:50:56;14.60;69.80
8910;DHT22;4490;49.072;8.804;2022-07-18T03:53:22;14.60;69.90
8910;DHT22;4490;49.072;8.804;2022-07-18T03:55:47;14.60;70.00
8910;DHT22;4490;49.072;8.804;2022-07-18T03:58:13;14.50;69.90
8910;DHT22;4490;49.072;8.804;2022-07-18T04:00:39;14.50;70.10
8910;DHT22;4490;49.072;8.804;2022-07-18T04:03:04;14.50;70.20
8910;DHT22;4490;49.072;8.804;2022-07-18T04:05:30;14.50;70.30
8910;DHT22;4490;49.072;8.804;2022-07-18T04:07:55;14.50;70.40
8910;DHT22;4490;49.072;8.804;2022-07-18T04:10:21;14.50;70.50
8910;DHT22;4490;49.072;8.804;2022-07-18T04:12:49;14.50;70.50
8910;DHT22;4490;49.072;8.804;2022-07-18T04:15:15;14.50;70.50
8910;DHT22;4490;49.072;8.804;2022-07-18T04:17:41;14.50;70.60
8910;DHT22;4490;49.072;8.804;2022-07-18T04:20:07;14.60;70.60
8910;DHT22;4490;49.072;8.804;2022-07-18T04:22:44;14.60;70.60
8910;DHT22;4490;49.072;8.804;2022-07-18T04:25:10;14.60;70.80
8910;DHT22;4490;49.072;8.804;2022-07-18T04:27:35;14.60;70.70
8910;DHT22;4490;49.072;8.804;2022-07-18T04:30:02;14.60;70.70
8910;DHT22;4490;49.072;8.804;2022-07-18T04:32:27;14.60;70.80
8910;DHT22;4490;49.072;8.804;2022-07-18T04:34:53;14.70;71.20
8910;DHT22;4490;49.072;8.804;2022-07-18T04:37:19;14.60;71.20
8910;DHT22;4490;49.072;8.804;2022-07-18T04:39:45;14.60;71.40
8910;DHT22;4490;49.072;8.804;2022-07-18T04:42:10;14.70;71.60
8910;DHT22;4490;49.072;8.804;2022-07-18T04:44:36;14.70;71.70
8910;DHT22;4490;49.072;8.804;2022-07-18T04:47:02;14.70;71.80
8910;DHT22;4490;49.072;8.804;2022-07-18T04:49:27;14.70;71.90
8910;DHT22;4490;49.072;8.804;2022-07-18T04:51:53;14.80;72.10
8910;DHT22;4490;49.072;8.804;2022-07-18T04:54:18;14.80;72.30
8910;DHT22;4490;49.072;8.804;2022-07-18T04:56:44;14.80;72.10
8910;DHT22;4490;49.072;8.804;2022-07-18T04:59:10;14.90;72.00
8910;DHT22;4490;49.072;8.804;2022-07-18T05:01:35;14.90;72.10
8910;DHT22;4490;49.072;8.804;2022-07-18T05:04:01;15.00;72.20
8910;DHT22;4490;49.072;8.804;2022-07-18T05:06:26;15.00;72.20
8910;DHT22;4490;49.072;8.804;2022-07-18T05:08:52;15.00;72.30
8910;DHT22;4490;49.072;8.804;2022-07-18T05:11:18;15.10;72.60
8910;DHT22;4490;49.072;8.804;2022-07-18T05:13:43;15.10;72.60
8910;DHT22;4490;49.072;8.804;2022-07-18T05:16:09;15.20;72.70
8910;DHT22;4490;49.072;8.804;2022-07-18T05:18:35;15.30;72.50
8910;DHT22;4490;49.072;8.804;2022-07-18T05:21:00;15.30;72.20
8910;DHT22;4490;49.072;8.804;2022-07-18T05:23:26;15.40;72.20
8910;DHT22;4490;49.072;8.804;2022-07-18T05:25:51;15.40;72.10
8910;DHT22;4490;49.072;8.804;2022-07-18T05:28:17;15.50;72.10
8910;DHT22;4490;49.072;8.804;2022-07-18T05:30:43;15.60;72.00
8910;DHT22;4490;49.072;8.804;2022-07-18T05:33:09;15.60;71.60
8910;DHT22;4490;49.072;8.804;2022-07-18T05:35:35;15.70;71.60
8910;DHT22;4490;49.072;8.804;2022-07-18T05:38:00;15.80;71.70
8910;DHT22;4490;49.072;8.804;2022-07-18T05:40:27;15.90;71.90
8910;DHT22;4490;49.072;8.804;2022-07-18T05:42:57;16.00;72.00
8910;DHT22;4490;49.072;8.804;2022-07-18T05:45:23;16.10;72.20
8910;DHT22;4490;49.072;8.804;2022-07-18T05:47:49;16.20;72.20
8910;DHT22;4490;49.072;8.804;2022-07-18T05:50:15;16.30;72.10
8910;DHT22;4490;49.072;8.804;2022-07-18T05:52:40;16.40;71.60
8910;DHT22;4490;49.072;8.804;2022-07-18T05:55:06;16.60;70.80
8910;DHT22;4490;49.072;8.804;2022-07-18T05:57:34;16.80;70.50
8910;DHT22;4490;49.072;8.804;2022-07-18T05:59:59;17.20;69.60
8910;DHT22;4490;49.072;8.804;2022-07-18T06:02:25;17.60;69.00
8910;DHT22;4490;49.072;8.804;2022-07-18T06:04:51;18.10;68.00
8910;DHT22;4490;49.072;8.804;2022-07-18T06:07:16;18.60;67.40
8910;DHT22;4490;49.072;8.804;2022-07-18T06:09:42;19.20;66.60
8910;DHT22;4490;49.072;8.804;2022-07-18T06:12:08;19.70;65.70
8910;DHT22;4490;49.072;8.804;2022-07-18T06:14:34;20.20;64.10
8910;DHT22;4490;49.072;8.804;2022-07-18T06:16:59;20.50;63.00
8910;DHT22;4490;49.072;8.804;2022-07-18T06:19:26;20.80;62.10
8910;DHT22;4490;49.072;8.804;2022-07-18T06:21:51;21.10;61.20
8910;DHT22;4490;49.072;8.804;2022-07-18T06:24:19;21.30;60.10
8910;DHT22;4490;49.072;8.804;2022-07-18T06:26:45;21.40;59.20
8910;DHT22;4490;49.072;8.804;2022-07-18T06:29:11;21.60;59.20
8910;DHT22;4490;49.072;8.804;2022-07-18T06:31:36;21.70;59.20
8910;DHT22;4490;49.072;8.804;2022-07-18T06:34:02;21.80;58.70
8910;DHT22;4490;49.072;8.804;2022-07-18T06:36:29;21.90;58.80
8910;DHT22;4490;49.072;8.804;2022-07-18T06:38:54;21.90;58.70
8910;DHT22;4490;49.072;8.804;2022-07-18T06:41:20;21.90;58.50
8910;DHT22;4490;49.072;8.804;2022-07-18T06:43:46;21.90;58.20
8910;DHT22;4490;49.072;8.804;2022-07-18T06:46:11;21.90;57.90
8910;DHT22;4490;49.072;8.804;2022-07-18T06:48:37;21.90;57.80
8910;DHT22;4490;49.072;8.804;2022-07-18T06:51:04;22.00;57.80
8910;DHT22;4490;49.072;8.804;2022-07-18T06:53:31;22.00;58.10
8910;DHT22;4490;49.072;8.804;2022-07-18T06:59:20;22.10;57.00
8910;DHT22;4490;49.072;8.804;2022-07-18T07:01:47;22.30;57.50
8910;DHT22;4490;49.072;8.804;2022-07-18T07:04:13;22.40;57.50
8910;DHT22;4490;49.072;8.804;2022-07-18T07:06:39;22.50;57.50
8910;DHT22;4490;49.072;8.804;2022-07-18T07:09:05;22.60;57.60
8910;DHT22;4490;49.072;8.804;2022-07-18T07:11:31;22.80;57.40
8910;DHT22;4490;49.072;8.804;2022-07-18T07:13:57;23.00;57.40
8910;DHT22;4490;49.072;8.804;2022-07-18T07:16:23;23.20;57.10
8910;DHT22;4490;49.072;8.804;2022-07-18T07:18:48;23.40;56.60
8910;DHT22;4490;49.072;8.804;2022-07-18T07:21:14;23.60;56.40
8910;DHT22;4490;49.072;8.804;2022-07-18T07:23:40;23.70;55.60
8910;DHT22;4490;49.072;8.804;2022-07-18T07:26:07;23.90;55.40
8910;DHT22;4490;49.072;8.804;2022-07-18T07:28:32;24.10;54.70
8910;DHT22;4490;49.072;8.804;2022-07-18T07:30:58;24.20;54.60
8910;DHT22;4490;49.072;8.804;2022-07-18T07:33:24;24.30;54.10
8910;DHT22;4490;49.072;8.804;2022-07-18T07:35:50;24.40;54.00
8910;DHT22;4490;49.072;8.804;2022-07-18T07:38:15;24.50;53.70
8910;DHT22;4490;49.072;8.804;2022-07-18T07:40:45;24.60;53.30
8910;DHT22;4490;49.072;8.804;2022-07-18T07:43:14;24.70;53.10
8910;DHT22;4490;49.072;8.804;2022-07-18T07:45:40;24.80;53.30
8910;DHT22;4490;49.072;8.804;2022-07-18T07:48:06;24.90;53.40
8910;DHT22;4490;49.072;8.804;2022-07-18T07:50:32;25.10;53.00
8910;DHT22;4490;49.072;8.804;2022-07-18T07:52:58;25.20;52.60
8910;DHT22;4490;49.072;8.804;2022-07-18T07:55:24;25.40;51.70
8910;DHT22;4490;49.072;8.804;2022-07-18T07:57:51;25.50;51.80
8910;DHT22;4490;49.072;8.804;2022-07-18T08:00:16;25.70;51.00
8910;DHT22;4490;49.072;8.804;2022-07-18T08:02:56;25.90;50.70
8910;DHT22;4490;49.072;8.804;2022-07-18T08:05:22;26.10;48.90
8910;DHT22;4490;49.072;8.804;2022-07-18T08:07:48;26.20;49.30
8910;DHT22;4490;49.072;8.804;2022-07-18T08:10:14;26.40;49.50
8910;DHT22;4490;49.072;8.804;2022-07-18T08:12:40;26.60;49.10
8910;DHT22;4490;49.072;8.804;2022-07-18T08:15:06;26.70;48.50
8910;DHT22;4490;49.072;8.804;2022-07-18T08:17:32;26.90;47.60
8910;DHT22;4490;49.072;8.804;2022-07-18T08:19:57;27.10;48.00
8910;DHT22;4490;49.072;8.804;2022-07-18T08:22:23;27.30;47.60
8910;DHT22;4490;49.072;8.804;2022-07-18T08:24:49;27.40;47.30
8910;DHT22;4490;49.072;8.804;2022-07-18T08:27:15;27.60;46.60
8910;DHT22;4490;49.072;8.804;2022-07-18T08:29:40;27.60;45.80
8910;DHT22;4490;49.072;8.804;2022-07-18T08:32:06;27.80;45.70
8910;DHT22;4490;49.072;8.804;2022-07-18T08:34:32;27.90;46.20
8910;DHT22;4490;49.072;8.804;2022-07-18T08:36:57;28.10;45.10
8910;DHT22;4490;49.072;8.804;2022-07-18T08:39:23;28.20;45.30
8910;DHT22;4490;49.072;8.804;2022-07-18T08:41:50;28.30;45.10
8910;DHT22;4490;49.072;8.804;2022-07-18T08:44:17;28.50;44.00
8910;DHT22;4490;49.072;8.804;2022-07-18T08:46:50;28.70;43.70
8910;DHT22;4490;49.072;8.804;2022-07-18T08:49:17;28.90;43.80
8910;DHT22;4490;49.072;8.804;2022-07-18T08:51:43;29.00;43.00
8910;DHT22;4490;49.072;8.804;2022-07-18T08:54:10;29.10;42.10
8910;DHT22;4490;49.072;8.804;2022-07-18T08:56:35;29.20;42.30
8910;DHT22;4490;49.072;8.804;2022-07-18T08:59:02;29.40;42.60
8910;DHT22;4490;49.072;8.804;2022-07-18T09:01:32;29.50;41.70
8910;DHT22;4490;49.072;8.804;2022-07-18T09:03:58;29.70;42.20
8910;DHT22;4490;49.072;8.804;2022-07-18T09:06:50;29.90;41.50
8910;DHT22;4490;49.072;8.804;2022-07-18T09:09:17;30.10;41.30
8910;DHT22;4490;49.072;8.804;2022-07-18T09:12:07;30.20;41.40
8910;DHT22;4490;49.072;8.804;2022-07-18T09:14:38;30.40;41.30
8910;DHT22;4490;49.072;8.804;2022-07-18T09:20:05;30.70;40.00
8910;DHT22;4490;49.072;8.804;2022-07-18T09:22:35;30.80;39.90
8910;DHT22;4490;49.072;8.804;2022-07-18T09:32:34;31.20;38.90
8910;DHT22;4490;49.072;8.804;2022-07-18T09:35:11;31.30;38.50
8910;DHT22;4490;49.072;8.804;2022-07-18T09:37:37;31.60;37.40
8910;DHT22;4490;49.072;8.804;2022-07-18T09:40:19;31.70;38.10
8910;DHT22;4490;49.072;8.804;2022-07-18T09:42:56;31.90;37.60
8910;DHT22;4490;49.072;8.804;2022-07-18T09:45:24;32.10;38.00
8910;DHT22;4490;49.072;8.804;2022-07-18T09:48:02;32.20;37.80
8910;DHT22;4490;49.072;8.804;2022-07-18T09:50:41;32.40;36.40
8910;DHT22;4490;49.072;8.804;2022-07-18T09:53:13;32.50;36.60
8910;DHT22;4490;49.072;8.804;2022-07-18T09:56:04;32.70;35.90
8910;DHT22;4490;49.072;8.804;2022-07-18T09:58:34;32.90;35.20
8910;DHT22;4490;49.072;8.804;2022-07-18T10:01:01;33.10;35.80
8910;DHT22;4490;49.072;8.804;2022-07-18T10:03:27;33.20;35.40
8910;DHT22;4490;49.072;8.804;2022-07-18T10:05:55;33.40;35.20
8910;DHT22;4490;49.072;8.804;2022-07-18T10:08:25;33.50;35.00
8910;DHT22;4490;49.072;8.804;2022-07-18T10:10:52;33.50;34.50
8910;DHT22;4490;49.072;8.804;2022-07-18T10:13:20;33.60;33.50
8910;DHT22;4490;49.072;8.804;2022-07-18T10:15:48;33.80;34.20
8910;DHT22;4490;49.072;8.804;2022-07-18T10:18:17;33.80;33.20
8910;DHT22;4490;49.072;8.804;2022-07-18T10:20:50;33.90;33.30
8910;DHT22;4490;49.072;8.804;2022-07-18T10:23:24;34.00;33.00
8910;DHT22;4490;49.072;8.804;2022-07-18T10:31:35;34.20;32.60
8910;DHT22;4490;49.072;8.804;2022-07-18T10:36:36;34.20;32.70
8910;DHT22;4490;49.072;8.804;2022-07-18T10:57:42;34.80;32.30
8910;DHT22;4490;49.072;8.804;2022-07-18T11:00:32;34.90;31.90
8910;DHT22;4490;49.072;8.804;2022-07-18T11:03:07;35.00;31.40
8910;DHT22;4490;49.072;8.804;2022-07-18T11:05:34;35.10;31.40
8910;DHT22;4490;49.072;8.804;2022-07-18T11:18:24;35.70;30.60
8910;DHT22;4490;49.072;8.804;2022-07-18T11:20:51;35.80;30.20
8910;DHT22;4490;49.072;8.804;2022-07-18T11:23:22;36.00;30.00
8910;DHT22;4490;49.072;8.804;2022-07-18T11:25:53;36.10;29.60
8910;DHT22;4490;49.072;8.804;2022-07-18T11:28:20;36.20;29.90
8910;DHT22;4490;49.072;8.804;2022-07-18T11:31:05;36.40;30.00
8910;DHT22;4490;49.072;8.804;2022-07-18T11:33:33;36.60;29.80
8910;DHT22;4490;49.072;8.804;2022-07-18T11:38:29;36.70;29.20
8910;DHT22;4490;49.072;8.804;2022-07-18T11:40:54;36.70;28.90
8910;DHT22;4490;49.072;8.804;2022-07-18T11:43:24;36.80;28.90
8910;DHT22;4490;49.072;8.804;2022-07-18T11:48:26;36.90;28.40
8910;DHT22;4490;49.072;8.804;2022-07-18T11:50:52;36.90;28.40
8910;DHT22;4490;49.072;8.804;2022-07-18T11:53:17;37.00;27.90
8910;DHT22;4490;49.072;8.804;2022-07-18T11:55:43;37.20;27.70
8910;DHT22;4490;49.072;8.804;2022-07-18T11:58:10;37.30;28.40
8910;DHT22;4490;49.072;8.804;2022-07-18T12:00:36;37.40;28.20
8910;DHT22;4490;49.072;8.804;2022-07-18T12:03:02;37.50;27.80
8910;DHT22;4490;49.072;8.804;2022-07-18T12:05:35;37.60;27.80
8910;DHT22;4490;49.072;8.804;2022-07-18T12:08:01;37.60;27.60
8910;DHT22;4490;49.072;8.804;2022-07-18T12:10:26;37.60;28.10
8910;DHT22;4490;49.072;8.804;2022-07-18T12:12:53;37.60;27.70
8910;DHT22;4490;49.072;8.804;2022-07-18T12:15:19;37.70;27.80
8910;DHT22;4490;49.072;8.804;2022-07-18T12:17:48;37.80;27.20
8910;DHT22;4490;49.072;8.804;2022-07-18T12:20:20;38.10;27.40
8910;DHT22;4490;49.072;8.804;2022-07-18T12:23:06;38.20;27.00
8910;DHT22;4490;49.072;8.804;2022-07-18T12:25:55;38.10;27.30
8910;DHT22;4490;49.072;8.804;2022-07-18T12:28:21;38.00;27.00
8910;DHT22;4490;49.072;8.804;2022-07-18T12:30:47;37.90;27.20
8910;DHT22;4490;49.072;8.804;2022-07-18T12:33:13;37.90;27.30
8910;DHT22;4490;49.072;8.804;2022-07-18T12:35:39;38.10;27.00
8910;DHT22;4490;49.072;8.804;2022-07-18T12:38:14;38.30;27.20
8910;DHT22;4490;49.072;8.804;2022-07-18T12:40:46;38.40;26.60
8910;DHT22;4490;49.072;8.804;2022-07-18T12:43:29;38.40;27.10
8910;DHT22;4490;49.072;8.804;2022-07-18T12:45:55;38.50;27.10
8910;DHT22;4490;49.072;8.804;2022-07-18T12:48:22;38.60;27.10
8910;DHT22;4490;49.072;8.804;2022-07-18T12:50:58;38.80;27.10
8910;DHT22;4490;49.072;8.804;2022-07-18T12:53:24;39.00;26.00
8910;DHT22;4490;49.072;8.804;2022-07-18T12:55:50;39.10;25.80
8910;DHT22;4490;49.072;8.804;2022-07-18T12:58:16;39.20;25.60
8910;DHT22;4490;49.072;8.804;2022-07-18T13:00:42;39.30;26.00
8910;DHT22;4490;49.072;8.804;2022-07-18T13:03:09;39.40;25.70
8910;DHT22;4490;49.072;8.804;2022-07-18T13:05:35;39.40;26.40
8910;DHT22;4490;49.072;8.804;2022-07-18T13:08:01;39.30;26.40
8910;DHT22;4490;49.072;8.804;2022-07-18T13:10:27;39.20;26.60
8910;DHT22;4490;49.072;8.804;2022-07-18T13:12:53;39.20;27.00
8910;DHT22;4490;49.072;8.804;2022-07-18T13:15:19;39.20;26.30
8910;DHT22;4490;49.072;8.804;2022-07-18T13:17:46;39.20;25.60
8910;DHT22;4490;49.072;8.804;2022-07-18T13:20:14;39.20;25.70
8910;DHT22;4490;49.072;8.804;2022-07-18T13:22:40;39.30;25.90
8910;DHT22;4490;49.072;8.804;2022-07-18T13:25:07;39.30;26.50
8910;DHT22;4490;49.072;8.804;2022-07-18T13:27:33;39.30;26.40
8910;DHT22;4490;49.072;8.804;2022-07-18T13:29:59;39.20;26.10
8910;DHT22;4490;49.072;8.804;2022-07-18T13:32:27;39.10;26.00
8910;DHT22;4490;49.072;8.804;2022-07-18T13:34:53;38.90;26.10
8910;DHT22;4490;49.072;8.804;2022-07-18T13:37:18;38.70;25.60
8910;DHT22;4490;49.072;8.804;2022-07-18T13:39:44;38.60;25.60
8910;DHT22;4490;49.072;8.804;2022-07-18T13:42:10;38.40;25.80
8910;DHT22;4490;49.072;8.804;2022-07-18T13:44:35;38.30;26.60
8910;DHT22;4490;49.072;8.804;2022-07-18T13:47:01;38.20;26.30
8910;DHT22;4490;49.072;8.804;2022-07-18T13:49:27;38.20;26.10
8910;DHT22;4490;49.072;8.804;2022-07-18T13:51:52;38.20;26.50
8910;DHT22;4490;49.072;8.804;2022-07-18T13:54:18;38.20;26.20
8910;DHT22;4490;49.072;8.804;2022-07-18T13:56:44;38.30;26.20
8910;DHT22;4490;49.072;8.804;2022-07-18T13:59:10;38.30;26.30
8910;DHT22;4490;49.072;8.804;2022-07-18T14:01:36;38.40;26.30
8910;DHT22;4490;49.072;8.804;2022-07-18T14:04:02;38.50;26.40
8910;DHT22;4490;49.072;8.804;2022-07-18T14:06:28;38.50;26.80
8910;DHT22;4490;49.072;8.804;2022-07-18T14:08:53;38.40;26.50
8910;DHT22;4490;49.072;8.804;2022-07-18T14:11:19;38.30;26.60
8910;DHT22;4490;49.072;8.804;2022-07-18T14:13:45;38.20;26.60
8910;DHT22;4490;49.072;8.804;2022-07-18T14:16:13;38.10;26.80
8910;DHT22;4490;49.072;8.804;2022-07-18T14:18:40;38.10;26.60
8910;DHT22;4490;49.072;8.804;2022-07-18T14:21:06;38.20;26.70
8910;DHT22;4490;49.072;8.804;2022-07-18T14:23:32;38.20;26.50
8910;DHT22;4490;49.072;8.804;2022-07-18T14:25:58;38.20;26.10
8910;DHT22;4490;49.072;8.804;2022-07-18T14:28:23;38.30;26.20
8910;DHT22;4490;49.072;8.804;2022-07-18T14:30:49;38.20;26.60
8910;DHT22;4490;49.072;8.804;2022-07-18T14:33:15;38.10;27.10
8910;DHT22;4490;49.072;8.804;2022-07-18T14:35:40;38.10;27.20
8910;DHT22;4490;49.072;8.804;2022-07-18T14:38:06;38.00;27.30
8910;DHT22;4490;49.072;8.804;2022-07-18T14:40:32;37.90;27.20
8910;DHT22;4490;49.072;8.804;2022-07-18T14:42:57;37.80;27.20
8910;DHT22;4490;49.072;8.804;2022-07-18T14:45:23;37.70;27.20
8910;DHT22;4490;49.072;8.804;2022-07-18T14:47:49;37.50;27.00
8910;DHT22;4490;49.072;8.804;2022-07-18T14:50:14;37.40;27.00
8910;DHT22;4490;49.072;8.804;2022-07-18T14:52:40;37.20;27.10
8910;DHT22;4490;49.072;8.804;2022-07-18T14:55:07;37.10;26.90
8910;DHT22;4490;49.072;8.804;2022-07-18T14:57:34;37.10;27.10
8910;DHT22;4490;49.072;8.804;2022-07-18T15:00:03;37.10;26.80
8910;DHT22;4490;49.072;8.804;2022-07-18T15:02:29;37.10;27.10
8910;DHT22;4490;49.072;8.804;2022-07-18T15:04:54;37.10;27.30
8910;DHT22;4490;49.072;8.804;2022-07-18T15:07:20;37.00;27.70
8910;DHT22;4490;49.072;8.804;2022-07-18T15:09:46;37.00;27.80
8910;DHT22;4490;49.072;8.804;2022-07-18T15:12:11;36.90;27.30
8910;DHT22;4490;49.072;8.804;2022-07-18T15:14:37;36.90;27.50
8910;DHT22;4490;49.072;8.804;2022-07-18T15:17:03;36.70;27.20
8910;DHT22;4490;49.072;8.804;2022-07-18T15:19:29;36.60;27.10
8910;DHT22;4490;49.072;8.804;2022-07-18T15:21:55;36.40;27.00
8910;DHT22;4490;49.072;8.804;2022-07-18T15:24:21;36.40;27.50
8910;DHT22;4490;49.072;8.804;2022-07-18T15:26:47;36.30;28.00
8910;DHT22;4490;49.072;8.804;2022-07-18T15:29:13;36.20;28.40
8910;DHT22;4490;49.072;8.804;2022-07-18T15:31:40;36.10;27.80
8910;DHT22;4490;49.072;8.804;2022-07-18T15:34:06;36.00;28.00
8910;DHT22;4490;49.072;8.804;2022-07-18T15:36:31;36.00;28.20
8910;DHT22;4490;49.072;8.804;2022-07-18T15:38:57;35.90;28.60
8910;DHT22;4490;49.072;8.804;2022-07-18T15:41:23;35.80;28.30
8910;DHT22;4490;49.072;8.804;2022-07-18T15:43:49;35.80;28.30
8910;DHT22;4490;49.072;8.804;2022-07-18T15:46:15;35.70;28.60
8910;DHT22;4490;49.072;8.804;2022-07-18T15:48:48;35.60;28.40
8910;DHT22;4490;49.072;8.804;2022-07-18T15:51:14;35.60;28.50
8910;DHT22;4490;49.072;8.804;2022-07-18T15:53:40;35.50;28.60
8910;DHT22;4490;49.072;8.804;2022-07-18T15:56:06;35.50;28.40
8910;DHT22;4490;49.072;8.804;2022-07-18T15:58:32;35.40;28.50
8910;DHT22;4490;49.072;8.804;2022-07-18T16:00:58;35.30;28.50
8910;DHT22;4490;49.072;8.804;2022-07-18T16:03:24;35.30;28.60
8910;DHT22;4490;49.072;8.804;2022-07-18T16:05:50;35.30;28.40
8910;DHT22;4490;49.072;8.804;2022-07-18T16:08:16;35.20;28.60
8910;DHT22;4490;49.072;8.804;2022-07-18T16:10:42;35.10;28.80
8910;DHT22;4490;49.072;8.804;2022-07-18T16:13:08;35.00;28.90
8910;DHT22;4490;49.072;8.804;2022-07-18T16:15:34;35.00;28.90
8910;DHT22;4490;49.072;8.804;2022-07-18T16:18:00;34.90;29.20
8910;DHT22;4490;49.072;8.804;2022-07-18T16:20:26;34.90;29.50
8910;DHT22;4490;49.072;8.804;2022-07-18T16:22:52;34.90;29.10
8910;DHT22;4490;49.072;8.804;2022-07-18T16:25:18;34.80;29.00
8910;DHT22;4490;49.072;8.804;2022-07-18T16:27:44;34.80;29.30
8910;DHT22;4490;49.072;8.804;2022-07-18T16:30:10;34.80;29.30
8910;DHT22;4490;49.072;8.804;2022-07-18T16:32:36;34.80;29.30
8910;DHT22;4490;49.072;8.804;2022-07-18T16:35:02;34.80;29.30
8910;DHT22;4490;49.072;8.804;2022-07-18T16:37:28;34.70;29.20
8910;DHT22;4490;49.072;8.804;2022-07-18T16:39:54;34.70;29.20
8910;DHT22;4490;49.072;8.804;2022-07-18T16:42:20;34.60;29.60
8910;DHT22;4490;49.072;8.804;2022-07-18T16:44:46;34.50;29.50
8910;DHT22;4490;49.072;8.804;2022-07-18T16:47:13;34.50;29.30
8910;DHT22;4490;49.072;8.804;2022-07-18T16:49:39;34.40;29.70
8910;DHT22;4490;49.072;8.804;2022-07-18T16:52:06;34.30;29.90
8910;DHT22;4490;49.072;8.804;2022-07-18T16:54:37;34.20;29.80
8910;DHT22;4490;49.072;8.804;2022-07-18T16:57:05;34.10;30.00